Time;durP1;ratioP1;P1;durP2;ratioP2;P2;SDS_P1;SDS_P2;PMS_P1;PMS_P2;Temp;Humidity;BMP_temperature;BMP_pressure;BME280_temperature;BME280_humidity;BME280_pressure;Samples;Min_cycle;Max_cycle;Signal;HPM_P1;HPM_P2
2023/05/24 00:00:45;;;;;;;18.23;3.33;;;;;;;;;;5036600;28;20544;-72
2023/05/24 00:03:17;;;;;;;16.57;4.63;;;;;;;;;;5017026;28;20921;-70
2023/05/24 00:05:45;;;;;;;38.50;5.03;;;;;;;;;;5032779;28;20820;-71
2023/05/24 00:08:14;;;;;;;16.87;4.43;;;;;;;;;;5037453;28;20466;-71
2023/05/24 00:10:44;;;;;;;15.37;4.27;;;;;;;;;;5039435;28;20463;-70
2023/05/24 00:13:14;;;;;;;22.47;4.70;;;;;;;;;;5045877;28;20769;-70
2023/05/24 00:15:42;;;;;;;9.30;3.77;;;;;;;;;;5055791;28;20454;-70
2023/05/24 00:18:09;;;;;;;19.73;5.50;;;;;;;;;;5040167;28;20533;-70
2023/05/24 00:20:37;;;;;;;12.33;4.00;;;;;;;;;;5039398;28;20884;-72
2023/05/24 00:23:05;;;;;;;11.23;3.73;;;;;;;;;;5058102;28;20889;-71
2023/05/24 00:25:33;;;;;;;18.93;4.50;;;;;;;;;;5059845;28;21170;-71
2023/05/24 00:28:17;;;;;;;22.53;3.10;;;;;;;;;;5059530;28;20784;-71
2023/05/24 00:30:49;;;;;;;13.87;3.90;;;;;;;;;;5061588;28;20542;-71
2023/05/24 00:33:18;;;;;;;15.13;4.33;;;;;;;;;;5059305;28;20462;-71
2023/05/24 00:35:55;;;;;;;13.63;3.60;;;;;;;;;;5078016;28;20449;-71
2023/05/24 00:38:23;;;;;;;21.93;3.97;;;;;;;;;;5079197;28;20465;-69
2023/05/24 00:43:47;;;;;;;19.83;4.80;;;;;;;;;;5065352;28;20471;-71
2023/05/24 00:46:29;;;;;;;18.53;3.97;;;;;;;;;;5079037;28;20552;-71
2023/05/24 00:49:04;;;;;;;15.40;4.10;;;;;;;;;;5079168;28;20442;-70
2023/05/24 00:51:37;;;;;;;15.77;3.80;;;;;;;;;;5077862;28;20446;-70
2023/05/24 00:54:05;;;;;;;17.80;4.50;;;;;;;;;;5078555;28;21046;-72
2023/05/24 00:59:37;;;;;;;10.63;4.67;;;;;;;;;;5060096;28;20455;-71
2023/05/24 01:02:05;;;;;;;16.43;4.30;;;;;;;;;;5062653;28;20496;-71
2023/05/24 01:04:36;;;;;;;15.30;4.77;;;;;;;;;;5061398;28;20533;-71
2023/05/24 01:07:08;;;;;;;15.00;4.30;;;;;;;;;;5062280;28;20935;-69
2023/05/24 01:09:44;;;;;;;22.30;5.00;;;;;;;;;;5072427;28;20461;-70
2023/05/24 01:12:16;;;;;;;12.20;4.80;;;;;;;;;;5084337;28;20528;-69
2023/05/24 01:14:58;;;;;;;23.27;5.67;;;;;;;;;;5081502;28;20461;-70
2023/05/24 01:17:31;;;;;;;23.90;5.00;;;;;;;;;;5083391;28;20448;-71
2023/05/24 01:20:29;;;;;;;15.93;4.40;;;;;;;;;;5083112;28;20511;-71
2023/05/24 01:23:14;;;;;;;21.33;5.60;;;;;;;;;;5083688;28;20499;-71
2023/05/24 01:26:00;;;;;;;19.00;4.27;;;;;;;;;;5081986;28;20460;-71
2023/05/24 01:28:30;;;;;;;17.93;4.83;;;;;;;;;;5059982;28;20458;-71
2023/05/24 01:31:00;;;;;;;25.30;4.60;;;;;;;;;;5061468;28;20874;-71
2023/05/24 01:33:35;;;;;;;17.70;4.70;;;;;;;;;;5062909;28;20850;-70
2023/05/24 01:36:06;;;;;;;14.37;3.70;;;;;;;;;;5061018;28;20453;-72
2023/05/24 01:38:41;;;;;;;19.53;4.40;;;;;;;;;;5063045;28;20446;-71
2023/05/24 01:41:16;;;;;;;13.70;4.60;;;;;;;;;;5061266;28;20476;-70
2023/05/24 01:43:49;;;;;;;24.40;4.83;;;;;;;;;;5063044;28;20552;-71
2023/05/24 01:46:26;;;;;;;24.13;5.03;;;;;;;;;;5061224;28;20497;-71
2023/05/24 01:48:58;;;;;;;23.13;4.60;;;;;;;;;;5062926;28;20524;-71
2023/05/24 01:51:35;;;;;;;20.10;6.47;;;;;;;;;;5061782;28;20450;-70
2023/05/24 01:54:10;;;;;;;19.20;4.63;;;;;;;;;;5062165;28;20422;-72
2023/05/24 01:56:38;;;;;;;23.47;4.30;;;;;;;;;;5061110;28;20457;-71
2023/05/24 01:59:12;;;;;;;19.60;4.70;;;;;;;;;;5061935;28;20450;-71
2023/05/24 02:01:42;;;;;;;22.60;4.20;;;;;;;;;;5062479;28;20485;-71
2023/05/24 02:04:19;;;;;;;20.90;4.80;;;;;;;;;;5061254;28;20454;-70
2023/05/24 02:06:59;;;;;;;18.07;4.23;;;;;;;;;;5060858;28;20698;-71
2023/05/24 02:09:31;;;;;;;21.53;5.93;;;;;;;;;;5061288;28;20461;-70
2023/05/24 02:12:04;;;;;;;19.70;4.80;;;;;;;;;;5061906;28;20466;-71
2023/05/24 02:14:37;;;;;;;29.67;6.07;;;;;;;;;;5060433;28;20552;-71
2023/05/24 02:17:05;;;;;;;17.07;4.80;;;;;;;;;;5059736;28;20529;-71
2023/05/24 02:19:45;;;;;;;23.13;6.33;;;;;;;;;;5059226;28;20461;-71
2023/05/24 02:22:17;;;;;;;24.93;5.50;;;;;;;;;;5061512;28;20520;-70
2023/05/24 02:24:49;;;;;;;18.53;5.67;;;;;;;;;;5059155;28;20458;-70
2023/05/24 02:27:28;;;;;;;21.50;4.60;;;;;;;;;;5060331;28;20469;-70
2023/05/24 02:29:58;;;;;;;15.70;4.47;;;;;;;;;;5060243;28;20470;-71
2023/05/24 02:32:27;;;;;;;24.90;5.17;;;;;;;;;;5060284;28;20509;-71
2023/05/24 02:34:57;;;;;;;18.87;5.10;;;;;;;;;;5060190;28;20458;-71
2023/05/24 02:37:27;;;;;;;22.47;5.50;;;;;;;;;;5060176;28;20452;-72
2023/05/24 02:39:57;;;;;;;21.80;5.50;;;;;;;;;;5060694;28;20466;-72
2023/05/24 02:42:26;;;;;;;19.30;4.97;;;;;;;;;;5062446;28;20562;-71
2023/05/24 02:44:57;;;;;;;18.53;4.83;;;;;;;;;;5060100;28;20835;-70
2023/05/24 02:47:32;;;;;;;13.03;4.40;;;;;;;;;;5059707;28;20500;-70
2023/05/24 02:52:51;;;;;;;15.23;4.60;;;;;;;;;;5057512;28;20465;-72
2023/05/24 02:55:25;;;;;;;15.63;4.10;;;;;;;;;;5059448;28;20738;-72
2023/05/24 02:57:53;;;;;;;18.80;5.40;;;;;;;;;;5059164;28;20873;-71
2023/05/24 03:00:22;;;;;;;21.70;5.87;;;;;;;;;;5059900;28;20854;-70
2023/05/24 03:02:59;;;;;;;23.20;7.20;;;;;;;;;;5061684;28;20494;-70
2023/05/24 03:05:43;;;;;;;17.27;4.63;;;;;;;;;;5058977;28;20877;-70
2023/05/24 03:08:10;;;;;;;15.87;5.37;;;;;;;;;;5060018;28;20462;-70
2023/05/24 03:10:38;;;;;;;18.90;4.20;;;;;;;;;;5058954;28;20454;-72
2023/05/24 03:13:05;;;;;;;16.47;4.87;;;;;;;;;;5059284;28;20453;-69
2023/05/24 03:15:36;;;;;;;18.80;4.90;;;;;;;;;;5057942;28;20492;-70
2023/05/24 03:18:05;;;;;;;15.53;5.93;;;;;;;;;;5058358;28;20454;-71
2023/05/24 03:20:33;;;;;;;19.30;6.87;;;;;;;;;;5055949;28;20486;-72
2023/05/24 03:23:00;;;;;;;18.23;3.87;;;;;;;;;;5056123;28;20823;-71
2023/05/24 03:25:28;;;;;;;22.53;5.50;;;;;;;;;;5055274;28;20878;-71
2023/05/24 03:27:55;;;;;;;23.33;4.73;;;;;;;;;;5054902;28;20458;-71
2023/05/24 03:30:23;;;;;;;15.50;5.50;;;;;;;;;;5055195;28;20438;-71
2023/05/24 03:32:50;;;;;;;18.97;5.37;;;;;;;;;;5055420;28;20450;-71
2023/05/24 03:35:19;;;;;;;19.57;5.27;;;;;;;;;;5056745;28;20469;-71
2023/05/24 03:37:47;;;;;;;14.00;4.63;;;;;;;;;;5055678;28;20519;-71
2023/05/24 03:40:15;;;;;;;14.30;4.33;;;;;;;;;;5057332;28;20547;-71
2023/05/24 03:42:42;;;;;;;24.83;5.23;;;;;;;;;;5058914;28;20489;-72
2023/05/24 03:45:10;;;;;;;15.90;4.50;;;;;;;;;;5055454;28;20472;-70
2023/05/24 03:47:38;;;;;;;21.07;4.73;;;;;;;;;;5056280;28;20458;-70
2023/05/24 03:50:09;;;;;;;16.53;4.00;;;;;;;;;;5055945;28;20458;-71
2023/05/24 03:52:38;;;;;;;18.30;4.17;;;;;;;;;;5057946;28;20458;-71
2023/05/24 03:55:06;;;;;;;29.10;7.00;;;;;;;;;;5054911;28;20472;-71
2023/05/24 03:57:37;;;;;;;25.07;7.40;;;;;;;;;;5057436;28;20477;-72
2023/05/24 04:00:17;;;;;;;17.20;4.90;;;;;;;;;;5056128;28;20458;-72
2023/05/24 04:02:45;;;;;;;14.50;4.50;;;;;;;;;;5054835;28;20489;-70
2023/05/24 04:05:14;;;;;;;14.30;4.83;;;;;;;;;;5054555;28;21062;-71
2023/05/24 04:07:45;;;;;;;18.23;5.63;;;;;;;;;;5037885;28;20470;-70
2023/05/24 04:10:12;;;;;;;16.17;3.93;;;;;;;;;;5055852;28;20461;-72
2023/05/24 04:12:41;;;;;;;17.87;4.27;;;;;;;;;;5055092;28;20442;-72
2023/05/24 04:15:13;;;;;;;22.53;5.80;;;;;;;;;;5056751;28;20450;-71
2023/05/24 04:17:41;;;;;;;30.70;5.27;;;;;;;;;;5055676;28;20524;-70
2023/05/24 04:20:09;;;;;;;17.80;5.07;;;;;;;;;;5057422;28;20462;-72
2023/05/24 04:22:37;;;;;;;21.43;5.20;;;;;;;;;;5057457;28;20786;-70
2023/05/24 04:25:08;;;;;;;12.10;5.67;;;;;;;;;;5055506;28;20453;-71
2023/05/24 04:27:36;;;;;;;19.17;4.47;;;;;;;;;;5053856;28;20461;-71
2023/05/24 04:30:13;;;;;;;26.10;5.90;;;;;;;;;;5056306;28;20453;-70
2023/05/24 04:32:40;;;;;;;15.83;4.87;;;;;;;;;;5057132;28;20452;-71
2023/05/24 04:35:08;;;;;;;20.70;4.73;;;;;;;;;;5058639;28;20458;-70
2023/05/24 04:37:35;;;;;;;11.77;4.53;;;;;;;;;;5061386;28;20537;-70
2023/05/24 04:40:15;;;;;;;17.93;4.70;;;;;;;;;;5061626;28;20709;-70
2023/05/24 04:42:42;;;;;;;24.23;5.33;;;;;;;;;;5062919;28;20562;-70
2023/05/24 04:45:13;;;;;;;15.10;5.40;;;;;;;;;;5060524;28;20462;-70
2023/05/24 04:47:42;;;;;;;19.73;5.20;;;;;;;;;;5061059;28;21010;-70
2023/05/24 04:50:10;;;;;;;18.93;4.93;;;;;;;;;;5059210;28;20457;-72
2023/05/24 04:55:21;;;;;;;22.80;5.70;;;;;;;;;;5057921;28;20453;-70
2023/05/24 04:57:54;;;;;;;11.43;4.27;;;;;;;;;;5059132;28;20511;-70
2023/05/24 05:00:21;;;;;;;17.27;6.40;;;;;;;;;;5059353;28;20461;-69
2023/05/24 05:02:53;;;;;;;15.30;4.47;;;;;;;;;;5056912;28;21061;-70
2023/05/24 05:05:28;;;;;;;20.87;4.70;;;;;;;;;;5057745;28;20457;-70
2023/05/24 05:07:56;;;;;;;18.67;4.80;;;;;;;;;;5056813;28;20473;-71
2023/05/24 05:10:26;;;;;;;9.17;3.57;;;;;;;;;;5057297;28;20441;-72
2023/05/24 05:12:53;;;;;;;18.60;4.60;;;;;;;;;;5057918;28;20438;-71
2023/05/24 05:15:22;;;;;;;20.00;4.90;;;;;;;;;;5054878;28;20836;-70
2023/05/24 05:17:49;;;;;;;22.93;4.67;;;;;;;;;;5057050;28;20553;-70
2023/05/24 05:20:17;;;;;;;20.63;4.70;;;;;;;;;;5057210;28;20482;-70
2023/05/24 05:25:30;;;;;;;18.50;4.90;;;;;;;;;;5047437;28;20447;-70
2023/05/24 05:28:01;;;;;;;10.17;4.13;;;;;;;;;;5044088;28;20474;-71
2023/05/24 05:30:30;;;;;;;22.67;5.00;;;;;;;;;;5057267;28;20460;-71
2023/05/24 05:33:06;;;;;;;19.03;5.00;;;;;;;;;;5044096;28;20664;-72
2023/05/24 05:35:37;;;;;;;17.57;5.10;;;;;;;;;;5045923;28;20476;-71
2023/05/24 05:38:07;;;;;;;33.53;7.40;;;;;;;;;;5055634;28;20523;-71
2023/05/24 05:40:37;;;;;;;24.97;6.93;;;;;;;;;;5053895;28;20461;-70
2023/05/24 05:43:09;;;;;;;16.73;4.23;;;;;;;;;;5051870;28;20482;-70
2023/05/24 05:45:37;;;;;;;19.53;5.10;;;;;;;;;;5050992;28;21088;-71
2023/05/24 05:48:10;;;;;;;11.47;4.50;;;;;;;;;;5053205;28;20461;-70
2023/05/24 05:50:53;;;;;;;10.67;4.23;;;;;;;;;;5033099;28;20755;-70
2023/05/24 05:53:32;;;;;;;15.43;4.43;;;;;;;;;;5048300;28;20438;-71
2023/05/24 05:56:16;;;;;;;15.03;3.90;;;;;;;;;;5044824;28;20747;-70
2023/05/24 05:58:50;;;;;;;14.97;4.20;;;;;;;;;;5048468;28;20501;-71
2023/05/24 06:01:18;;;;;;;17.50;5.23;;;;;;;;;;5049291;28;20454;-69
2023/05/24 06:04:00;;;;;;;19.87;5.00;;;;;;;;;;5055098;28;20577;-70
2023/05/24 06:06:33;;;;;;;16.70;4.83;;;;;;;;;;5049319;28;20524;-71
2023/05/24 06:09:25;;;;;;;20.40;5.23;;;;;;;;;;5041650;28;20821;-70
2023/05/24 06:12:00;;;;;;;13.43;6.00;;;;;;;;;;5051303;28;20465;-72
2023/05/24 06:14:28;;;;;;;17.13;4.83;;;;;;;;;;5048632;28;20950;-70
2023/05/24 06:16:59;;;;;;;15.40;4.17;;;;;;;;;;5047678;28;21120;-70
2023/05/24 06:19:47;;;;;;;16.40;3.90;;;;;;;;;;5050446;28;20461;-71
2023/05/24 06:22:15;;;;;;;13.60;4.03;;;;;;;;;;5050849;28;20500;-71
2023/05/24 06:24:43;;;;;;;12.43;4.47;;;;;;;;;;5053261;28;20486;-71
2023/05/24 06:27:16;;;;;;;17.20;4.43;;;;;;;;;;5053146;28;20901;-70
2023/05/24 06:29:44;;;;;;;11.97;3.70;;;;;;;;;;5049396;28;21055;-70
2023/05/24 06:32:21;;;;;;;11.27;4.73;;;;;;;;;;5053998;28;20442;-71
2023/05/24 06:34:53;;;;;;;17.67;4.87;;;;;;;;;;5051532;28;20507;-70
2023/05/24 06:37:24;;;;;;;11.43;4.63;;;;;;;;;;5054131;28;20521;-70
2023/05/24 06:39:56;;;;;;;19.67;7.47;;;;;;;;;;5051670;28;21205;-70
2023/05/24 06:42:29;;;;;;;15.40;5.30;;;;;;;;;;5051117;28;20528;-70
2023/05/24 06:45:04;;;;;;;12.73;4.57;;;;;;;;;;5048268;28;20524;-69
2023/05/24 06:47:46;;;;;;;16.80;5.33;;;;;;;;;;5032384;28;20442;-71
2023/05/24 06:50:21;;;;;;;12.10;4.00;;;;;;;;;;5043397;28;20454;-70
2023/05/24 06:52:52;;;;;;;12.80;4.20;;;;;;;;;;5054695;28;20853;-70
2023/05/24 06:55:27;;;;;;;13.33;3.70;;;;;;;;;;5052697;28;20457;-69
2023/05/24 06:57:56;;;;;;;10.47;3.40;;;;;;;;;;5054615;28;20465;-70
2023/05/24 07:00:39;;;;;;;14.37;5.23;;;;;;;;;;5053994;28;20444;-71
2023/05/24 07:03:17;;;;;;;11.43;4.20;;;;;;;;;;5054159;28;20496;-71
2023/05/24 07:05:56;;;;;;;9.10;4.40;;;;;;;;;;5056635;28;20456;-69
2023/05/24 07:08:36;;;;;;;14.87;3.80;;;;;;;;;;5051829;28;20552;-72
2023/05/24 07:11:05;;;;;;;21.17;4.90;;;;;;;;;;5057288;28;20453;-71
2023/05/24 07:13:41;;;;;;;15.13;5.10;;;;;;;;;;5057089;28;20526;-71
2023/05/24 07:16:17;;;;;;;15.57;4.70;;;;;;;;;;5059571;28;20461;-70
2023/05/24 07:18:46;;;;;;;14.53;4.83;;;;;;;;;;5055909;28;20458;-70
2023/05/24 07:21:15;;;;;;;10.47;3.87;;;;;;;;;;5056557;28;20460;-72
2023/05/24 07:23:46;;;;;;;13.07;5.23;;;;;;;;;;5054952;28;20485;-71
2023/05/24 07:26:30;;;;;;;11.13;4.97;;;;;;;;;;5054239;28;20539;-70
2023/05/24 07:29:04;;;;;;;17.80;5.30;;;;;;;;;;5053864;28;20454;-72
2023/05/24 07:31:41;;;;;;;12.50;4.77;;;;;;;;;;5055969;28;20669;-71
2023/05/24 07:34:11;;;;;;;14.40;4.77;;;;;;;;;;5055145;28;20477;-70
2023/05/24 07:36:39;;;;;;;13.33;5.20;;;;;;;;;;5056637;28;20442;-70
2023/05/24 07:39:14;;;;;;;11.40;2.93;;;;;;;;;;5055720;28;20469;-70
2023/05/24 07:41:43;;;;;;;15.60;5.03;;;;;;;;;;5054681;28;20454;-70
2023/05/24 07:44:24;;;;;;;11.37;4.50;;;;;;;;;;5070969;28;20484;-70
2023/05/24 07:49:49;;;;;;;25.77;6.20;;;;;;;;;;5062941;28;20464;-71
2023/05/24 07:52:17;;;;;;;26.33;6.47;;;;;;;;;;5052317;28;20454;-70
2023/05/24 07:55:10;;;;;;;12.67;5.23;;;;;;;;;;5050468;28;20464;-71
2023/05/24 07:57:44;;;;;;;11.83;4.77;;;;;;;;;;5030383;28;20455;-71
2023/05/24 08:00:16;;;;;;;13.97;3.70;;;;;;;;;;5065597;28;20509;-70
2023/05/24 08:02:45;;;;;;;10.50;5.30;;;;;;;;;;5060731;28;20453;-70
2023/05/24 08:05:16;;;;;;;19.63;5.77;;;;;;;;;;5053020;28;20485;-71
2023/05/24 08:07:53;;;;;;;13.67;5.17;;;;;;;;;;5059331;28;20937;-70
2023/05/24 08:10:34;;;;;;;16.90;5.50;;;;;;;;;;5080929;28;20483;-71
2023/05/24 08:13:15;;;;;;;9.57;6.07;;;;;;;;;;5078982;28;20453;-70
2023/05/24 08:15:59;;;;;;;11.13;4.90;;;;;;;;;;5056383;28;20881;-71
2023/05/24 08:18:28;;;;;;;10.53;4.33;;;;;;;;;;5061860;28;20715;-71
2023/05/24 08:21:01;;;;;;;16.73;5.10;;;;;;;;;;5060211;28;20457;-70
2023/05/24 08:23:32;;;;;;;10.47;4.40;;;;;;;;;;5058820;28;20493;-70
2023/05/24 08:26:18;;;;;;;9.70;4.73;;;;;;;;;;5046513;28;20457;-70
2023/05/24 08:28:46;;;;;;;12.57;4.33;;;;;;;;;;5060523;28;21046;-70
2023/05/24 08:31:18;;;;;;;11.70;4.43;;;;;;;;;;5062347;28;20481;-70
2023/05/24 08:33:56;;;;;;;11.60;4.83;;;;;;;;;;5057148;28;21057;-70
2023/05/24 08:36:36;;;;;;;16.27;4.47;;;;;;;;;;5059484;28;20449;-71
2023/05/24 08:39:13;;;;;;;12.40;4.00;;;;;;;;;;5061549;28;20449;-70
2023/05/24 08:41:56;;;;;;;10.43;5.20;;;;;;;;;;5057679;28;20845;-70
2023/05/24 08:44:40;;;;;;;14.93;5.33;;;;;;;;;;5061359;28;20500;-70
2023/05/24 08:47:17;;;;;;;16.70;5.70;;;;;;;;;;5061186;28;20449;-69
2023/05/24 08:49:46;;;;;;;13.17;5.23;;;;;;;;;;5059458;28;20496;-71
2023/05/24 08:52:15;;;;;;;16.20;4.53;;;;;;;;;;5062424;28;20453;-70
2023/05/24 08:54:44;;;;;;;15.13;6.67;;;;;;;;;;5061350;28;20464;-70
2023/05/24 09:03:41;;;;;;;16.87;8.00;;;;;;;;;;5060018;28;20480;-71
2023/05/24 09:06:15;;;;;;;12.47;5.30;;;;;;;;;;5063811;28;20526;-72
2023/05/24 09:08:45;;;;;;;15.57;5.93;;;;;;;;;;5061370;28;20548;-71
2023/05/24 09:11:27;;;;;;;14.20;6.07;;;;;;;;;;5060235;28;20461;-71
2023/05/24 09:14:10;;;;;;;17.20;6.30;;;;;;;;;;5045278;28;20486;-71
2023/05/24 09:16:46;;;;;;;10.10;5.73;;;;;;;;;;5053549;28;20469;-72
2023/05/24 09:19:19;;;;;;;8.60;5.43;;;;;;;;;;5052379;28;20580;-71
2023/05/24 09:21:57;;;;;;;16.43;4.93;;;;;;;;;;5061809;28;20475;-71
2023/05/24 09:24:25;;;;;;;11.40;5.37;;;;;;;;;;5058725;28;20477;-71
2023/05/24 09:27:07;;;;;;;16.33;5.27;;;;;;;;;;5057739;28;20454;-72
2023/05/24 09:29:53;;;;;;;10.50;3.90;;;;;;;;;;5056815;28;20480;-71
2023/05/24 09:32:28;;;;;;;20.40;5.37;;;;;;;;;;5059607;28;20858;-71
2023/05/24 09:37:51;;;;;;;12.57;4.50;;;;;;;;;;5041580;28;20465;-70
2023/05/24 09:40:26;;;;;;;16.33;5.50;;;;;;;;;;5064739;28;20450;-70
2023/05/24 09:43:20;;;;;;;21.23;6.03;;;;;;;;;;5043046;28;20447;-71
2023/05/24 09:45:49;;;;;;;10.80;4.93;;;;;;;;;;5032548;28;20533;-70
2023/05/24 09:48:22;;;;;;;17.60;6.70;;;;;;;;;;5037103;28;20637;-70
2023/05/24 09:51:17;;;;;;;13.70;7.10;;;;;;;;;;5042901;28;20501;-70
2023/05/24 09:53:53;;;;;;;18.43;6.40;;;;;;;;;;5059787;28;20457;-71
2023/05/24 09:56:26;;;;;;;15.77;6.33;;;;;;;;;;5070164;28;20433;-71
2023/05/24 09:58:55;;;;;;;15.33;7.87;;;;;;;;;;5041486;28;20545;-70
2023/05/24 10:01:27;;;;;;;17.70;7.47;;;;;;;;;;5034981;28;20839;-71
2023/05/24 10:04:01;;;;;;;14.93;6.10;;;;;;;;;;5043190;28;20500;-71
2023/05/24 10:06:46;;;;;;;17.13;8.47;;;;;;;;;;5063944;28;20457;-71
2023/05/24 10:09:15;;;;;;;18.23;8.37;;;;;;;;;;5076847;28;20503;-70
2023/05/24 10:15:07;;;;;;;15.80;6.50;;;;;;;;;;5049831;28;20448;-70
2023/05/24 10:17:52;;;;;;;25.30;7.33;;;;;;;;;;5023676;28;20510;-71
2023/05/24 10:20:27;;;;;;;24.43;8.20;;;;;;;;;;5052885;28;20442;-71
2023/05/24 10:23:13;;;;;;;23.03;7.00;;;;;;;;;;5054438;28;20450;-71
2023/05/24 10:25:47;;;;;;;21.10;7.10;;;;;;;;;;5051983;28;21148;-71
2023/05/24 10:31:22;;;;;;;12.10;6.67;;;;;;;;;;4413412;26;20453;-80
2023/05/24 10:33:50;;;;;;;17.10;7.43;;;;;;;;;;5077413;28;20440;-81
2023/05/24 10:36:19;;;;;;;18.73;8.37;;;;;;;;;;5087009;28;20479;-81
2023/05/24 10:38:48;;;;;;;19.93;6.50;;;;;;;;;;5086483;28;20528;-80
2023/05/24 10:41:21;;;;;;;21.07;7.00;;;;;;;;;;5084640;28;20456;-81
2023/05/24 10:43:49;;;;;;;16.30;6.30;;;;;;;;;;5082235;28;20451;-80
2023/05/24 10:46:24;;;;;;;19.37;6.17;;;;;;;;;;5075394;28;20452;-79
2023/05/24 10:49:08;;;;;;;21.23;8.00;;;;;;;;;;5087273;28;20444;-82
2023/05/24 10:51:49;;;;;;;14.30;6.23;;;;;;;;;;5083167;22;20496;-72
2023/05/24 10:54:28;;;;;;;11.80;5.73;;;;;;;;;;5070314;28;20538;-72
2023/05/24 10:57:15;;;;;;;20.40;5.80;;;;;;;;;;5067625;28;20477;-71
2023/05/24 10:59:51;;;;;;;18.77;6.17;;;;;;;;;;5075168;28;20457;-72
2023/05/24 11:02:33;;;;;;;15.93;6.80;;;;;;;;;;5072754;28;20456;-75
2023/05/24 11:05:08;;;;;;;12.77;6.07;;;;;;;;;;5073008;28;20605;-71
2023/05/24 11:07:47;;;;;;;22.23;6.87;;;;;;;;;;5072486;28;20804;-71
2023/05/24 11:10:18;;;;;;;14.27;5.73;;;;;;;;;;5072313;28;20475;-72
2023/05/24 11:13:01;;;;;;;13.93;6.00;;;;;;;;;;5058866;28;20485;-71
2023/05/24 11:15:34;;;;;;;16.97;6.17;;;;;;;;;;5078353;28;20461;-71
2023/05/24 11:18:16;;;;;;;12.10;4.90;;;;;;;;;;5069873;28;20567;-71
2023/05/24 11:20:46;;;;;;;18.50;8.20;;;;;;;;;;5071031;28;20493;-71
2023/05/24 11:23:16;;;;;;;19.63;5.70;;;;;;;;;;5072952;28;20447;-71
2023/05/24 11:25:46;;;;;;;16.90;5.03;;;;;;;;;;5071776;28;20484;-71
2023/05/24 11:28:13;;;;;;;12.20;5.47;;;;;;;;;;5064076;28;20768;-71
2023/05/24 11:31:01;;;;;;;13.50;5.30;;;;;;;;;;5060365;28;20464;-71
2023/05/24 11:36:58;;;;;;;;;;;;;;;;;;;;;
2023/05/24 11:39:40;;;;;;;14.10;4.30;;;;;;;;;;5025876;28;20882;-71
2023/05/24 11:42:38;;;;;;;11.47;3.87;;;;;;;;;;5055860;28;20516;-71
2023/05/24 11:45:14;;;;;;;18.37;6.70;;;;;;;;;;5054562;28;20522;-71
2023/05/24 11:47:51;;;;;;;8.53;4.30;;;;;;;;;;5055755;28;20492;-71
2023/05/24 11:53:35;;;;;;;12.10;4.80;;;;;;;;;;5048664;28;20453;-72
2023/05/24 11:56:04;;;;;;;16.70;7.53;;;;;;;;;;5052716;28;20580;-71
2023/05/24 11:58:43;;;;;;;12.13;3.97;;;;;;;;;;5052124;28;20457;-71
2023/05/24 12:01:28;;;;;;;10.13;4.23;;;;;;;;;;5049139;28;20490;-70
2023/05/24 12:04:04;;;;;;;14.27;4.30;;;;;;;;;;5048111;28;20453;-71
2023/05/24 12:06:46;;;;;;;12.53;4.90;;;;;;;;;;5050971;28;20477;-70
2023/05/24 12:09:15;;;;;;;9.33;4.10;;;;;;;;;;5035099;28;20501;-70
2023/05/24 12:11:44;;;;;;;9.50;4.23;;;;;;;;;;5029412;28;20454;-70
2023/05/24 12:14:15;;;;;;;9.37;4.00;;;;;;;;;;5031759;28;20542;-71
2023/05/24 12:19:47;;;;;;;13.60;4.13;;;;;;;;;;5018501;28;20455;-71
2023/05/24 12:22:35;;;;;;;14.30;3.90;;;;;;;;;;5047211;28;21180;-71
2023/05/24 12:25:48;;;;;;;8.17;3.60;;;;;;;;;;5047433;28;20617;-71
2023/05/24 12:28:29;;;;;;;10.63;4.20;;;;;;;;;;5050906;28;20674;-72
2023/05/24 12:31:07;;;;;;;9.07;3.40;;;;;;;;;;5051637;28;20461;-71
2023/05/24 12:33:48;;;;;;;15.90;4.50;;;;;;;;;;5051208;28;20449;-71
2023/05/24 12:39:29;;;;;;;11.87;4.70;;;;;;;;;;5053702;28;20528;-72
2023/05/24 12:47:40;;;;;;;12.20;3.67;;;;;;;;;;5033646;28;20435;-72
2023/05/24 12:50:16;;;;;;;18.90;12.60;;;;;;;;;;5035397;28;20458;-71
2023/05/24 12:52:47;;;;;;;12.30;4.50;;;;;;;;;;5043662;28;20500;-72
2023/05/24 12:55:20;;;;;;;11.43;3.40;;;;;;;;;;5046509;28;20504;-71
2023/05/24 13:01:31;;;;;;;9.43;4.00;;;;;;;;;;4966537;28;20543;-72
2023/05/24 13:07:39;;;;;;;11.70;4.33;;;;;;;;;;5017437;28;20463;-73
2023/05/24 13:16:07;;;;;;;12.50;3.33;;;;;;;;;;5041124;28;20535;-71
2023/05/24 13:18:37;;;;;;;9.37;5.57;;;;;;;;;;5052327;28;20998;-71
2023/05/24 13:21:24;;;;;;;10.57;4.07;;;;;;;;;;5044512;28;21020;-70
2023/05/24 13:24:02;;;;;;;9.13;4.83;;;;;;;;;;5050947;28;20458;-71
2023/05/24 13:26:37;;;;;;;8.90;4.10;;;;;;;;;;5053643;28;20489;-71
2023/05/24 13:29:11;;;;;;;9.37;4.27;;;;;;;;;;5041871;28;20497;-72
2023/05/24 13:31:49;;;;;;;10.67;4.67;;;;;;;;;;5034884;28;20494;-71
2023/05/24 13:34:32;;;;;;;10.03;4.53;;;;;;;;;;5043702;28;20470;-71
2023/05/24 13:37:18;;;;;;;13.90;3.87;;;;;;;;;;5050755;28;20458;-72
2023/05/24 13:46:07;;;;;;;12.20;4.80;;;;;;;;;;5022941;28;20482;-71
2023/05/24 14:02:42;;;;;;;8.97;4.00;;;;;;;;;;5406734;22;20479;-70
2023/05/24 14:05:22;;;;;;;15.83;5.30;;;;;;;;;;5025335;28;20585;-71
2023/05/24 14:08:14;;;;;;;14.90;5.43;;;;;;;;;;5029495;28;20471;-70
2023/05/24 14:10:48;;;;;;;22.83;6.23;;;;;;;;;;5019692;28;20487;-70
2023/05/24 14:13:21;;;;;;;10.87;4.20;;;;;;;;;;5007845;28;20479;-71
2023/05/24 14:15:49;;;;;;;8.70;4.37;;;;;;;;;;5013110;28;20546;-72
2023/05/24 14:24:52;;;;;;;15.10;5.00;;;;;;;;;;5026283;28;20494;-72
2023/05/24 14:31:05;;;;;;;12.90;5.30;;;;;;;;;;5032350;28;20452;-70
2023/05/24 14:34:01;;;;;;;;;;;;;;;;;;;;;
2023/05/24 14:36:32;;;;;;;12.53;5.60;;;;;;;;;;5055283;28;20853;-69
2023/05/24 14:39:46;;;;;;;18.33;5.00;;;;;;;;;;5074543;28;20868;-70
2023/05/24 14:42:28;;;;;;;11.37;5.20;;;;;;;;;;4972702;28;20944;-70
2023/05/24 14:45:02;;;;;;;12.50;4.97;;;;;;;;;;5021229;28;20478;-69
2023/05/24 14:47:44;;;;;;;10.57;4.20;;;;;;;;;;5023835;28;20483;-70
2023/05/24 14:53:40;;;;;;;14.23;4.50;;;;;;;;;;5047384;28;20837;-71
2023/05/24 14:56:12;;;;;;;15.00;4.40;;;;;;;;;;5051219;28;20535;-70
2023/05/24 14:59:02;;;;;;;15.93;5.60;;;;;;;;;;5041584;28;20439;-70
2023/05/24 15:01:44;;;;;;;12.53;4.70;;;;;;;;;;5033694;28;20455;-70
2023/05/24 15:04:27;;;;;;;8.27;5.30;;;;;;;;;;5032773;28;20732;-70
2023/05/24 15:06:59;;;;;;;14.40;5.70;;;;;;;;;;5031370;28;20602;-71
2023/05/24 15:09:41;;;;;;;;;;;;;;;;;;;;;
2023/05/24 15:12:26;;;;;;;16.20;5.70;;;;;;;;;;5030506;28;20965;-71
2023/05/24 15:14:55;;;;;;;12.23;6.07;;;;;;;;;;5027721;28;20510;-69
2023/05/24 15:17:45;;;;;;;16.60;5.03;;;;;;;;;;5041472;28;20553;-70
2023/05/24 15:20:21;;;;;;;13.20;6.10;;;;;;;;;;5050567;28;20459;-69
2023/05/24 15:22:49;;;;;;;12.40;5.77;;;;;;;;;;5049979;28;20485;-71
2023/05/24 15:25:23;;;;;;;8.70;4.63;;;;;;;;;;5053047;28;20458;-70
2023/05/24 15:27:53;;;;;;;12.47;5.73;;;;;;;;;;5029827;28;20521;-71
2023/05/24 15:30:23;;;;;;;9.10;5.80;;;;;;;;;;5028620;28;20530;-71
2023/05/24 15:32:52;;;;;;;13.57;7.40;;;;;;;;;;5033133;28;20505;-69
2023/05/24 15:35:21;;;;;;;11.83;4.90;;;;;;;;;;5058678;28;20453;-70
2023/05/24 15:37:59;;;;;;;10.10;5.60;;;;;;;;;;5050179;28;21084;-69
2023/05/24 15:40:38;;;;;;;11.60;5.73;;;;;;;;;;5049913;28;20472;-71
2023/05/24 15:43:06;;;;;;;13.50;4.73;;;;;;;;;;5046785;28;20984;-71
2023/05/24 15:45:36;;;;;;;8.93;5.07;;;;;;;;;;5048515;28;20481;-71
2023/05/24 15:48:06;;;;;;;17.63;5.00;;;;;;;;;;5031291;28;20536;-70
2023/05/24 15:50:34;;;;;;;11.90;5.20;;;;;;;;;;5018707;28;20516;-72
2023/05/24 15:53:03;;;;;;;13.43;4.67;;;;;;;;;;5045226;28;20485;-71
2023/05/24 15:55:37;;;;;;;9.43;5.20;;;;;;;;;;5049178;28;20556;-69
2023/05/24 15:58:14;;;;;;;11.43;6.03;;;;;;;;;;5053919;28;20464;-71
2023/05/24 16:00:56;;;;;;;16.97;4.53;;;;;;;;;;5052444;28;20920;-73
2023/05/24 16:03:25;;;;;;;10.43;3.67;;;;;;;;;;5040547;28;21140;-70
2023/05/24 16:06:13;;;;;;;14.77;4.57;;;;;;;;;;5045862;28;20494;-70
2023/05/24 16:14:34;;;;;;;12.83;4.70;;;;;;;;;;5055656;28;20489;-71
2023/05/24 16:17:03;;;;;;;13.40;4.67;;;;;;;;;;5062664;22;20513;-79
2023/05/24 16:19:31;;;;;;;11.43;5.07;;;;;;;;;;5031141;28;20452;-79
2023/05/24 16:21:59;;;;;;;14.70;4.93;;;;;;;;;;5035677;28;20897;-79
2023/05/24 16:24:28;;;;;;;15.73;5.37;;;;;;;;;;5031050;28;20459;-79
2023/05/24 16:26:57;;;;;;;18.37;5.90;;;;;;;;;;5022331;28;20509;-80
2023/05/24 16:29:30;;;;;;;17.10;5.80;;;;;;;;;;5042779;28;20492;-79
2023/05/24 16:31:58;;;;;;;10.47;5.80;;;;;;;;;;5042537;28;20509;-78
2023/05/24 16:34:27;;;;;;;12.97;6.17;;;;;;;;;;5023863;28;20458;-80
2023/05/24 16:36:56;;;;;;;9.23;4.70;;;;;;;;;;5027244;28;20683;-80
2023/05/24 16:39:27;;;;;;;82.73;54.43;;;;;;;;;;5026076;28;20460;-79
2023/05/24 16:42:01;;;;;;;14.30;4.80;;;;;;;;;;5026517;28;20563;-80
2023/05/24 16:44:29;;;;;;;20.63;4.77;;;;;;;;;;5028205;28;20458;-78
2023/05/24 16:46:56;;;;;;;18.03;5.23;;;;;;;;;;5026391;28;20495;-79
2023/05/24 16:58:36;;;;;;;11.90;4.67;;;;;;;;;;5033674;28;20439;-71
2023/05/24 17:01:18;;;;;;;7.60;4.43;;;;;;;;;;5038745;28;20446;-72
2023/05/24 17:03:50;;;;;;;14.50;5.87;;;;;;;;;;5039501;28;20517;-71
2023/05/24 17:06:24;;;;;;;9.87;4.60;;;;;;;;;;5036595;28;20487;-71